Portal, North Dakota
Current Conditions -  °F | °C
As of 10:00 AM on Friday 21 Nov 2014 (Local Time) from CYEN Reporting Station
Few Clouds Few Clouds  
Wind Chill: 25°   Ceiling: Unl
Heat Index: 36°   Visibility: 15mi
Dew Point: 27°   Wind: 17mph
Humidity: 70%   Direction: 230°SW
Pressure: 29.55"   Gusts: NA
Location:  49°N, 102.55°W
Report Text: CYEN 211600Z 23015KT 15SM FEW100 02/M03 A2955 RMK AC1 SLP043
Loading
Personal Weather Stations






























Interactive Weather Map New forecast layout! Learn more

10-Day Weather Forecast

Advertisements
Track Severe Weather on mobile